sensor_id;sensor_type;location;lat;lon;timestamp;temperature;humidity
60965;DHT22;46834;51.100;6.886;2022-10-16T00:01:25;14.90;56.20
60965;DHT22;46834;51.100;6.886;2022-10-16T00:03:56;14.90;56.20
60965;DHT22;46834;51.100;6.886;2022-10-16T00:06:23;14.90;56.20
60965;DHT22;46834;51.100;6.886;2022-10-16T00:08:50;14.90;56.20
60965;DHT22;46834;51.100;6.886;2022-10-16T00:11:18;14.90;56.30
60965;DHT22;46834;51.100;6.886;2022-10-16T00:13:47;14.90;56.30
60965;DHT22;46834;51.100;6.886;2022-10-16T00:16:15;14.90;56.30
60965;DHT22;46834;51.100;6.886;2022-10-16T00:18:41;14.90;56.30
60965;DHT22;46834;51.100;6.886;2022-10-16T00:21:12;14.90;56.30
60965;DHT22;46834;51.100;6.886;2022-10-16T00:23:43;14.80;56.30
60965;DHT22;46834;51.100;6.886;2022-10-16T00:26:12;14.80;56.30
60965;DHT22;46834;51.100;6.886;2022-10-16T00:28:41;14.80;56.30
60965;DHT22;46834;51.100;6.886;2022-10-16T00:31:09;14.90;56.40
60965;DHT22;46834;51.100;6.886;2022-10-16T00:33:38;14.80;56.40
60965;DHT22;46834;51.100;6.886;2022-10-16T00:36:06;14.70;56.30
60965;DHT22;46834;51.100;6.886;2022-10-16T00:38:33;14.70;56.30
60965;DHT22;46834;51.100;6.886;2022-10-16T00:41:00;14.70;56.30
60965;DHT22;46834;51.100;6.886;2022-10-16T00:43:45;14.70;56.30
60965;DHT22;46834;51.100;6.886;2022-10-16T00:46:26;14.70;56.40
60965;DHT22;46834;51.100;6.886;2022-10-16T00:54:19;14.70;56.40
60965;DHT22;46834;51.100;6.886;2022-10-16T00:56:48;14.70;56.40
60965;DHT22;46834;51.100;6.886;2022-10-16T00:59:18;14.60;56.30
60965;DHT22;46834;51.100;6.886;2022-10-16T01:01:46;14.60;56.40
60965;DHT22;46834;51.100;6.886;2022-10-16T01:04:12;14.60;56.30
60965;DHT22;46834;51.100;6.886;2022-10-16T01:10:15;14.60;56.40
60965;DHT22;46834;51.100;6.886;2022-10-16T01:13:33;14.60;56.40
60965;DHT22;46834;51.100;6.886;2022-10-16T01:18:56;14.60;56.50
60965;DHT22;46834;51.100;6.886;2022-10-16T01:21:38;14.60;56.40
60965;DHT22;46834;51.100;6.886;2022-10-16T01:24:21;14.50;56.40
60965;DHT22;46834;51.100;6.886;2022-10-16T01:27:21;14.50;56.40
60965;DHT22;46834;51.100;6.886;2022-10-16T01:30:10;14.50;56.50
60965;DHT22;46834;51.100;6.886;2022-10-16T01:33:10;14.50;56.50
60965;DHT22;46834;51.100;6.886;2022-10-16T01:35:47;14.50;56.40
60965;DHT22;46834;51.100;6.886;2022-10-16T01:38:35;14.50;56.50
60965;DHT22;46834;51.100;6.886;2022-10-16T01:41:10;14.50;56.60
60965;DHT22;46834;51.100;6.886;2022-10-16T01:44:04;14.50;56.60
60965;DHT22;46834;51.100;6.886;2022-10-16T01:46:36;14.50;56.60
60965;DHT22;46834;51.100;6.886;2022-10-16T01:49:05;14.50;56.60
60965;DHT22;46834;51.100;6.886;2022-10-16T01:51:34;14.50;56.60
60965;DHT22;46834;51.100;6.886;2022-10-16T01:54:02;14.50;56.60
60965;DHT22;46834;51.100;6.886;2022-10-16T01:56:31;14.40;56.50
60965;DHT22;46834;51.100;6.886;2022-10-16T01:59:02;14.50;56.60
60965;DHT22;46834;51.100;6.886;2022-10-16T02:01:38;14.50;56.60
60965;DHT22;46834;51.100;6.886;2022-10-16T02:04:36;14.50;56.60
60965;DHT22;46834;51.100;6.886;2022-10-16T02:07:09;14.50;56.70
60965;DHT22;46834;51.100;6.886;2022-10-16T02:09:35;14.50;56.60
60965;DHT22;46834;51.100;6.886;2022-10-16T02:12:29;14.50;56.60
60965;DHT22;46834;51.100;6.886;2022-10-16T02:14:58;14.50;56.80
60965;DHT22;46834;51.100;6.886;2022-10-16T02:17:24;14.50;56.60
60965;DHT22;46834;51.100;6.886;2022-10-16T02:19:53;14.40;56.60
60965;DHT22;46834;51.100;6.886;2022-10-16T02:22:45;14.50;56.70
60965;DHT22;46834;51.100;6.886;2022-10-16T02:25:22;14.50;56.70
60965;DHT22;46834;51.100;6.886;2022-10-16T02:30:49;14.50;56.60
60965;DHT22;46834;51.100;6.886;2022-10-16T02:33:21;14.50;56.60
60965;DHT22;46834;51.100;6.886;2022-10-16T02:35:50;14.50;56.60
60965;DHT22;46834;51.100;6.886;2022-10-16T02:38:19;14.50;56.60
60965;DHT22;46834;51.100;6.886;2022-10-16T02:40:46;14.50;56.60
60965;DHT22;46834;51.100;6.886;2022-10-16T02:43:12;14.50;56.60
60965;DHT22;46834;51.100;6.886;2022-10-16T02:45:38;14.50;56.50
60965;DHT22;46834;51.100;6.886;2022-10-16T02:48:05;14.50;56.50
60965;DHT22;46834;51.100;6.886;2022-10-16T02:50:31;14.60;56.60
60965;DHT22;46834;51.100;6.886;2022-10-16T02:52:57;14.60;56.60
60965;DHT22;46834;51.100;6.886;2022-10-16T02:55:22;14.60;56.50
60965;DHT22;46834;51.100;6.886;2022-10-16T02:57:48;14.60;56.50
60965;DHT22;46834;51.100;6.886;2022-10-16T03:00:15;14.60;56.50
60965;DHT22;46834;51.100;6.886;2022-10-16T03:02:42;14.60;56.40
60965;DHT22;46834;51.100;6.886;2022-10-16T03:05:09;14.60;56.40
60965;DHT22;46834;51.100;6.886;2022-10-16T03:07:35;14.60;56.40
60965;DHT22;46834;51.100;6.886;2022-10-16T03:10:00;14.60;56.30
60965;DHT22;46834;51.100;6.886;2022-10-16T03:12:27;14.60;56.30
60965;DHT22;46834;51.100;6.886;2022-10-16T03:14:53;14.60;56.20
60965;DHT22;46834;51.100;6.886;2022-10-16T03:17:19;14.60;56.20
60965;DHT22;46834;51.100;6.886;2022-10-16T03:19:45;14.50;56.00
60965;DHT22;46834;51.100;6.886;2022-10-16T03:22:10;14.60;56.10
60965;DHT22;46834;51.100;6.886;2022-10-16T03:24:36;14.60;56.10
60965;DHT22;46834;51.100;6.886;2022-10-16T03:27:02;14.50;56.00
60965;DHT22;46834;51.100;6.886;2022-10-16T03:29:27;14.50;55.90
60965;DHT22;46834;51.100;6.886;2022-10-16T03:31:55;14.50;55.90
60965;DHT22;46834;51.100;6.886;2022-10-16T03:34:21;14.50;55.90
60965;DHT22;46834;51.100;6.886;2022-10-16T03:36:47;14.50;55.90
60965;DHT22;46834;51.100;6.886;2022-10-16T03:39:12;14.40;55.80
60965;DHT22;46834;51.100;6.886;2022-10-16T03:41:38;14.40;55.80
60965;DHT22;46834;51.100;6.886;2022-10-16T03:44:05;14.50;55.90
60965;DHT22;46834;51.100;6.886;2022-10-16T03:46:31;14.50;55.90
60965;DHT22;46834;51.100;6.886;2022-10-16T03:48:57;14.50;55.90
60965;DHT22;46834;51.100;6.886;2022-10-16T03:51:23;14.40;55.80
60965;DHT22;46834;51.100;6.886;2022-10-16T03:53:48;14.40;55.70
60965;DHT22;46834;51.100;6.886;2022-10-16T03:56:14;14.40;55.70
60965;DHT22;46834;51.100;6.886;2022-10-16T03:58:40;14.40;55.70
60965;DHT22;46834;51.100;6.886;2022-10-16T04:01:05;14.40;55.70
60965;DHT22;46834;51.100;6.886;2022-10-16T04:03:31;14.40;55.70
60965;DHT22;46834;51.100;6.886;2022-10-16T04:05:57;14.40;55.70
60965;DHT22;46834;51.100;6.886;2022-10-16T04:08:22;14.40;55.70
60965;DHT22;46834;51.100;6.886;2022-10-16T04:10:48;14.40;55.70
60965;DHT22;46834;51.100;6.886;2022-10-16T04:13:14;14.40;55.70
60965;DHT22;46834;51.100;6.886;2022-10-16T04:15:40;14.40;55.80
60965;DHT22;46834;51.100;6.886;2022-10-16T04:18:06;14.40;55.70
60965;DHT22;46834;51.100;6.886;2022-10-16T04:20:32;14.40;55.80
60965;DHT22;46834;51.100;6.886;2022-10-16T04:22:59;14.40;55.70
60965;DHT22;46834;51.100;6.886;2022-10-16T04:25:24;14.30;56.30
60965;DHT22;46834;51.100;6.886;2022-10-16T04:27:52;14.30;55.70
60965;DHT22;46834;51.100;6.886;2022-10-16T04:30:19;14.40;55.70
60965;DHT22;46834;51.100;6.886;2022-10-16T04:32:50;14.30;55.60
60965;DHT22;46834;51.100;6.886;2022-10-16T04:35:17;14.50;55.80
60965;DHT22;46834;51.100;6.886;2022-10-16T04:37:44;14.30;55.60
60965;DHT22;46834;51.100;6.886;2022-10-16T04:40:10;14.30;55.60
60965;DHT22;46834;51.100;6.886;2022-10-16T04:42:36;14.30;55.60
60965;DHT22;46834;51.100;6.886;2022-10-16T04:45:02;14.30;55.60
60965;DHT22;46834;51.100;6.886;2022-10-16T04:47:28;14.30;55.60
60965;DHT22;46834;51.100;6.886;2022-10-16T04:49:54;14.20;55.60
60965;DHT22;46834;51.100;6.886;2022-10-16T04:52:19;14.20;55.60
60965;DHT22;46834;51.100;6.886;2022-10-16T04:54:46;14.20;55.60
60965;DHT22;46834;51.100;6.886;2022-10-16T04:57:12;14.20;55.60
60965;DHT22;46834;51.100;6.886;2022-10-16T04:59:38;14.20;55.60
60965;DHT22;46834;51.100;6.886;2022-10-16T05:02:04;14.20;55.70
60965;DHT22;46834;51.100;6.886;2022-10-16T05:04:29;14.20;55.70
60965;DHT22;46834;51.100;6.886;2022-10-16T05:06:55;14.20;55.70
60965;DHT22;46834;51.100;6.886;2022-10-16T05:09:21;14.20;55.80
60965;DHT22;46834;51.100;6.886;2022-10-16T05:11:46;14.20;55.80
60965;DHT22;46834;51.100;6.886;2022-10-16T05:14:12;14.20;55.80
60965;DHT22;46834;51.100;6.886;2022-10-16T05:16:38;14.20;55.80
60965;DHT22;46834;51.100;6.886;2022-10-16T05:19:03;14.10;55.70
60965;DHT22;46834;51.100;6.886;2022-10-16T05:21:29;14.10;55.70
60965;DHT22;46834;51.100;6.886;2022-10-16T05:23:55;14.10;55.70
60965;DHT22;46834;51.100;6.886;2022-10-16T05:26:21;14.10;55.70
60965;DHT22;46834;51.100;6.886;2022-10-16T05:28:47;14.10;55.80
60965;DHT22;46834;51.100;6.886;2022-10-16T05:31:12;14.10;55.80
60965;DHT22;46834;51.100;6.886;2022-10-16T05:33:38;14.10;55.80
60965;DHT22;46834;51.100;6.886;2022-10-16T05:36:05;14.10;55.90
60965;DHT22;46834;51.100;6.886;2022-10-16T05:38:33;14.10;55.90
60965;DHT22;46834;51.100;6.886;2022-10-16T05:41:00;14.10;55.90
60965;DHT22;46834;51.100;6.886;2022-10-16T05:43:27;14.10;55.90
60965;DHT22;46834;51.100;6.886;2022-10-16T05:45:58;14.10;56.00
60965;DHT22;46834;51.100;6.886;2022-10-16T05:48:28;14.10;56.00
60965;DHT22;46834;51.100;6.886;2022-10-16T05:51:03;14.10;56.00
60965;DHT22;46834;51.100;6.886;2022-10-16T05:53:32;14.10;56.10
60965;DHT22;46834;51.100;6.886;2022-10-16T05:55:59;14.10;56.00
60965;DHT22;46834;51.100;6.886;2022-10-16T05:58:28;14.10;56.10
60965;DHT22;46834;51.100;6.886;2022-10-16T06:01:00;14.10;56.10
60965;DHT22;46834;51.100;6.886;2022-10-16T06:03:28;14.10;56.10
60965;DHT22;46834;51.100;6.886;2022-10-16T06:05:54;14.10;56.10
60965;DHT22;46834;51.100;6.886;2022-10-16T06:08:21;14.10;56.10
60965;DHT22;46834;51.100;6.886;2022-10-16T06:10:48;14.10;56.10
60965;DHT22;46834;51.100;6.886;2022-10-16T06:13:15;14.20;56.20
60965;DHT22;46834;51.100;6.886;2022-10-16T06:15:42;14.20;56.20
60965;DHT22;46834;51.100;6.886;2022-10-16T06:18:09;14.20;56.20
60965;DHT22;46834;51.100;6.886;2022-10-16T06:20:35;14.20;56.30
60965;DHT22;46834;51.100;6.886;2022-10-16T06:23:01;14.20;56.30
60965;DHT22;46834;51.100;6.886;2022-10-16T06:25:30;14.20;56.30
60965;DHT22;46834;51.100;6.886;2022-10-16T06:27:56;14.20;56.30
60965;DHT22;46834;51.100;6.886;2022-10-16T06:30:22;14.20;56.30
60965;DHT22;46834;51.100;6.886;2022-10-16T06:32:47;14.30;56.30
60965;DHT22;46834;51.100;6.886;2022-10-16T06:35:13;14.30;56.30
60965;DHT22;46834;51.100;6.886;2022-10-16T06:37:39;14.30;56.40
60965;DHT22;46834;51.100;6.886;2022-10-16T06:40:05;14.30;56.30
60965;DHT22;46834;51.100;6.886;2022-10-16T06:42:31;14.30;56.40
60965;DHT22;46834;51.100;6.886;2022-10-16T06:44:57;14.40;56.40
60965;DHT22;46834;51.100;6.886;2022-10-16T06:47:22;14.40;56.40
60965;DHT22;46834;51.100;6.886;2022-10-16T06:49:48;14.40;56.50
60965;DHT22;46834;51.100;6.886;2022-10-16T06:52:14;14.40;56.50
60965;DHT22;46834;51.100;6.886;2022-10-16T06:54:39;14.40;56.50
60965;DHT22;46834;51.100;6.886;2022-10-16T06:57:05;14.40;56.40
60965;DHT22;46834;51.100;6.886;2022-10-16T06:59:30;14.50;56.50
60965;DHT22;46834;51.100;6.886;2022-10-16T07:01:56;14.50;56.60
60965;DHT22;46834;51.100;6.886;2022-10-16T07:04:22;14.50;56.60
60965;DHT22;46834;51.100;6.886;2022-10-16T07:06:47;14.60;56.80
60965;DHT22;46834;51.100;6.886;2022-10-16T07:09:13;14.60;56.80
60965;DHT22;46834;51.100;6.886;2022-10-16T07:11:40;14.70;56.90
60965;DHT22;46834;51.100;6.886;2022-10-16T07:14:18;14.70;56.70
60965;DHT22;46834;51.100;6.886;2022-10-16T07:16:44;14.70;56.70
60965;DHT22;46834;51.100;6.886;2022-10-16T07:19:10;14.80;56.70
60965;DHT22;46834;51.100;6.886;2022-10-16T07:21:37;14.80;56.70
60965;DHT22;46834;51.100;6.886;2022-10-16T07:24:05;14.90;56.70
60965;DHT22;46834;51.100;6.886;2022-10-16T07:26:35;14.90;56.70
60965;DHT22;46834;51.100;6.886;2022-10-16T07:29:02;14.90;56.60
60965;DHT22;46834;51.100;6.886;2022-10-16T07:31:29;14.90;56.50
60965;DHT22;46834;51.100;6.886;2022-10-16T07:33:54;14.90;56.50
60965;DHT22;46834;51.100;6.886;2022-10-16T07:36:21;15.00;56.60
60965;DHT22;46834;51.100;6.886;2022-10-16T07:38:47;14.90;56.50
60965;DHT22;46834;51.100;6.886;2022-10-16T07:41:16;15.00;56.60
60965;DHT22;46834;51.100;6.886;2022-10-16T07:43:47;15.00;56.50
60965;DHT22;46834;51.100;6.886;2022-10-16T07:46:14;15.00;56.50
60965;DHT22;46834;51.100;6.886;2022-10-16T07:48:42;15.00;56.40
60965;DHT22;46834;51.100;6.886;2022-10-16T07:51:11;15.00;56.40
60965;DHT22;46834;51.100;6.886;2022-10-16T07:53:37;15.00;56.40
60965;DHT22;46834;51.100;6.886;2022-10-16T07:56:07;15.00;56.30
60965;DHT22;46834;51.100;6.886;2022-10-16T07:58:34;15.00;56.30
60965;DHT22;46834;51.100;6.886;2022-10-16T08:01:07;15.00;56.40
60965;DHT22;46834;51.100;6.886;2022-10-16T08:03:34;15.00;56.40
60965;DHT22;46834;51.100;6.886;2022-10-16T08:06:01;15.00;56.50
60965;DHT22;46834;51.100;6.886;2022-10-16T08:08:28;15.00;56.50
60965;DHT22;46834;51.100;6.886;2022-10-16T08:10:54;15.00;56.60
60965;DHT22;46834;51.100;6.886;2022-10-16T08:13:20;15.10;57.20
60965;DHT22;46834;51.100;6.886;2022-10-16T08:15:46;15.10;56.70
60965;DHT22;46834;51.100;6.886;2022-10-16T08:18:13;15.10;56.60
60965;DHT22;46834;51.100;6.886;2022-10-16T08:20:41;15.20;56.70
60965;DHT22;46834;51.100;6.886;2022-10-16T08:23:07;15.20;56.70
60965;DHT22;46834;51.100;6.886;2022-10-16T08:25:35;15.30;56.70
60965;DHT22;46834;51.100;6.886;2022-10-16T08:28:07;15.30;56.70
60965;DHT22;46834;51.100;6.886;2022-10-16T08:30:34;15.40;56.70
60965;DHT22;46834;51.100;6.886;2022-10-16T08:33:00;15.50;56.70
60965;DHT22;46834;51.100;6.886;2022-10-16T08:35:27;15.50;56.60
60965;DHT22;46834;51.100;6.886;2022-10-16T08:37:53;15.60;56.60
60965;DHT22;46834;51.100;6.886;2022-10-16T08:40:25;15.60;56.60
60965;DHT22;46834;51.100;6.886;2022-10-16T08:45:51;15.70;56.40
60965;DHT22;46834;51.100;6.886;2022-10-16T08:48:30;15.80;56.60
60965;DHT22;46834;51.100;6.886;2022-10-16T08:51:19;15.80;56.40
60965;DHT22;46834;51.100;6.886;2022-10-16T08:53:54;15.90;56.30
60965;DHT22;46834;51.100;6.886;2022-10-16T08:56:23;15.90;56.30
60965;DHT22;46834;51.100;6.886;2022-10-16T08:58:50;15.90;56.30
60965;DHT22;46834;51.100;6.886;2022-10-16T09:01:20;16.00;56.40
60965;DHT22;46834;51.100;6.886;2022-10-16T09:07:09;16.10;56.20
60965;DHT22;46834;51.100;6.886;2022-10-16T09:12:36;16.20;56.30
60965;DHT22;46834;51.100;6.886;2022-10-16T09:20:54;16.40;55.80
60965;DHT22;46834;51.100;6.886;2022-10-16T09:23:29;16.50;55.60
60965;DHT22;46834;51.100;6.886;2022-10-16T09:25:58;16.50;55.70
60965;DHT22;46834;51.100;6.886;2022-10-16T09:28:24;16.50;56.00
60965;DHT22;46834;51.100;6.886;2022-10-16T09:30:50;16.60;55.90
60965;DHT22;46834;51.100;6.886;2022-10-16T09:33:18;16.60;55.90
60965;DHT22;46834;51.100;6.886;2022-10-16T09:35:49;16.70;55.80
60965;DHT22;46834;51.100;6.886;2022-10-16T09:38:29;16.70;55.60
60965;DHT22;46834;51.100;6.886;2022-10-16T09:40:58;16.80;55.30
60965;DHT22;46834;51.100;6.886;2022-10-16T09:48:49;17.00;55.30
60965;DHT22;46834;51.100;6.886;2022-10-16T09:51:22;17.00;55.80
60965;DHT22;46834;51.100;6.886;2022-10-16T09:53:53;17.10;55.00
60965;DHT22;46834;51.100;6.886;2022-10-16T09:56:26;17.10;55.10
60965;DHT22;46834;51.100;6.886;2022-10-16T09:58:54;17.10;54.70
60965;DHT22;46834;51.100;6.886;2022-10-16T10:01:31;17.20;54.90
60965;DHT22;46834;51.100;6.886;2022-10-16T10:04:03;17.20;54.50
60965;DHT22;46834;51.100;6.886;2022-10-16T10:06:35;17.30;55.00
60965;DHT22;46834;51.100;6.886;2022-10-16T10:09:23;17.30;54.80
60965;DHT22;46834;51.100;6.886;2022-10-16T10:12:01;17.40;54.30
60965;DHT22;46834;51.100;6.886;2022-10-16T10:14:37;17.50;54.60
60965;DHT22;46834;51.100;6.886;2022-10-16T10:25:00;17.70;54.70
60965;DHT22;46834;51.100;6.886;2022-10-16T10:37:03;18.00;53.70
60965;DHT22;46834;51.100;6.886;2022-10-16T10:40:07;18.10;54.30
60965;DHT22;46834;51.100;6.886;2022-10-16T10:43:02;18.20;53.60
60965;DHT22;46834;51.100;6.886;2022-10-16T10:45:44;18.20;53.50
60965;DHT22;46834;51.100;6.886;2022-10-16T10:48:24;18.30;53.50
60965;DHT22;46834;51.100;6.886;2022-10-16T10:51:11;18.40;53.60
60965;DHT22;46834;51.100;6.886;2022-10-16T10:56:47;18.50;53.50
60965;DHT22;46834;51.100;6.886;2022-10-16T11:02:26;18.60;53.20
60965;DHT22;46834;51.100;6.886;2022-10-16T11:08:42;18.70;53.30
60965;DHT22;46834;51.100;6.886;2022-10-16T11:11:02;18.70;53.00
60965;DHT22;46834;51.100;6.886;2022-10-16T11:16:23;18.80;52.60
60965;DHT22;46834;51.100;6.886;2022-10-16T11:19:17;18.80;52.90
60965;DHT22;46834;51.100;6.886;2022-10-16T11:24:48;18.90;52.70
60965;DHT22;46834;51.100;6.886;2022-10-16T11:27:28;18.90;52.20
60965;DHT22;46834;51.100;6.886;2022-10-16T11:30:08;18.90;52.40
60965;DHT22;46834;51.100;6.886;2022-10-16T11:41:45;18.90;52.80
60965;DHT22;46834;51.100;6.886;2022-10-16T11:47:26;19.00;52.60
60965;DHT22;46834;51.100;6.886;2022-10-16T11:56:18;19.20;52.80
60965;DHT22;46834;51.100;6.886;2022-10-16T11:58:51;19.30;52.80
60965;DHT22;46834;51.100;6.886;2022-10-16T12:01:19;19.40;52.80
60965;DHT22;46834;51.100;6.886;2022-10-16T12:04:27;19.40;52.70
60965;DHT22;46834;51.100;6.886;2022-10-16T12:07:15;19.50;51.70
60965;DHT22;46834;51.100;6.886;2022-10-16T12:09:46;19.60;52.20
60965;DHT22;46834;51.100;6.886;2022-10-16T12:12:38;19.60;52.50
60965;DHT22;46834;51.100;6.886;2022-10-16T12:15:26;19.70;51.50
60965;DHT22;46834;51.100;6.886;2022-10-16T12:17:54;19.80;51.40
60965;DHT22;46834;51.100;6.886;2022-10-16T12:20:24;19.80;51.90
60965;DHT22;46834;51.100;6.886;2022-10-16T12:23:04;19.80;51.50
60965;DHT22;46834;51.100;6.886;2022-10-16T12:25:37;19.70;51.50
60965;DHT22;46834;51.100;6.886;2022-10-16T12:30:41;19.70;51.30
60965;DHT22;46834;51.100;6.886;2022-10-16T12:35:54;19.70;50.60
60965;DHT22;46834;51.100;6.886;2022-10-16T12:38:28;19.70;51.40
60965;DHT22;46834;51.100;6.886;2022-10-16T12:41:06;19.70;51.00
60965;DHT22;46834;51.100;6.886;2022-10-16T12:43:40;19.70;51.00
60965;DHT22;46834;51.100;6.886;2022-10-16T12:48:42;19.80;51.20
60965;DHT22;46834;51.100;6.886;2022-10-16T12:54:04;19.90;50.60
60965;DHT22;46834;51.100;6.886;2022-10-16T13:02:23;20.10;50.40
60965;DHT22;46834;51.100;6.886;2022-10-16T13:17:08;20.80;49.90
60965;DHT22;46834;51.100;6.886;2022-10-16T13:20:03;20.90;50.50
60965;DHT22;46834;51.100;6.886;2022-10-16T13:25:23;21.10;50.00
60965;DHT22;46834;51.100;6.886;2022-10-16T13:28:04;21.10;49.30
60965;DHT22;46834;51.100;6.886;2022-10-16T13:30:42;21.20;49.90
60965;DHT22;46834;51.100;6.886;2022-10-16T13:35:35;21.30;49.80
60965;DHT22;46834;51.100;6.886;2022-10-16T13:38:05;21.30;49.60
60965;DHT22;46834;51.100;6.886;2022-10-16T13:40:49;21.40;49.10
60965;DHT22;46834;51.100;6.886;2022-10-16T13:43:22;21.40;48.50
60965;DHT22;46834;51.100;6.886;2022-10-16T13:46:18;21.40;49.10
60965;DHT22;46834;51.100;6.886;2022-10-16T13:49:04;21.40;49.00
60965;DHT22;46834;51.100;6.886;2022-10-16T13:51:32;21.40;48.00
60965;DHT22;46834;51.100;6.886;2022-10-16T13:53:58;21.40;49.00
60965;DHT22;46834;51.100;6.886;2022-10-16T13:56:29;21.40;48.90
60965;DHT22;46834;51.100;6.886;2022-10-16T13:59:06;21.40;48.20
60965;DHT22;46834;51.100;6.886;2022-10-16T14:01:47;21.40;47.70
60965;DHT22;46834;51.100;6.886;2022-10-16T14:04:15;21.30;48.30
60965;DHT22;46834;51.100;6.886;2022-10-16T14:06:43;21.20;48.20
60965;DHT22;46834;51.100;6.886;2022-10-16T14:09:25;21.10;48.00
60965;DHT22;46834;51.100;6.886;2022-10-16T14:12:00;21.10;47.50
60965;DHT22;46834;51.100;6.886;2022-10-16T14:14:40;21.00;47.70
60965;DHT22;46834;51.100;6.886;2022-10-16T14:17:27;21.00;47.60
60965;DHT22;46834;51.100;6.886;2022-10-16T14:19:58;20.90;47.30
60965;DHT22;46834;51.100;6.886;2022-10-16T14:24:55;20.80;47.80
60965;DHT22;46834;51.100;6.886;2022-10-16T14:27:32;20.80;48.30
60965;DHT22;46834;51.100;6.886;2022-10-16T14:32:54;20.80;47.90
60965;DHT22;46834;51.100;6.886;2022-10-16T14:35:40;20.80;47.90
60965;DHT22;46834;51.100;6.886;2022-10-16T14:38:18;20.80;47.40
60965;DHT22;46834;51.100;6.886;2022-10-16T14:40:49;20.80;47.60
60965;DHT22;46834;51.100;6.886;2022-10-16T14:43:42;20.70;47.60
60965;DHT22;46834;51.100;6.886;2022-10-16T14:46:13;20.70;47.60
60965;DHT22;46834;51.100;6.886;2022-10-16T14:48:48;20.60;47.40
60965;DHT22;46834;51.100;6.886;2022-10-16T14:51:19;20.60;47.70
60965;DHT22;46834;51.100;6.886;2022-10-16T14:53:46;20.50;47.40
60965;DHT22;46834;51.100;6.886;2022-10-16T14:56:21;20.50;47.60
60965;DHT22;46834;51.100;6.886;2022-10-16T14:58:50;20.50;47.00
60965;DHT22;46834;51.100;6.886;2022-10-16T15:01:18;20.40;47.40
60965;DHT22;46834;51.100;6.886;2022-10-16T15:03:44;20.40;47.60
60965;DHT22;46834;51.100;6.886;2022-10-16T15:06:14;20.40;47.60
60965;DHT22;46834;51.100;6.886;2022-10-16T15:08:41;20.40;47.50
60965;DHT22;46834;51.100;6.886;2022-10-16T15:11:13;20.40;47.90
60965;DHT22;46834;51.100;6.886;2022-10-16T15:13:41;20.40;47.70
60965;DHT22;46834;51.100;6.886;2022-10-16T15:16:15;20.40;47.90
60965;DHT22;46834;51.100;6.886;2022-10-16T15:18:41;20.40;47.70
60965;DHT22;46834;51.100;6.886;2022-10-16T15:21:08;20.30;47.80
60965;DHT22;46834;51.100;6.886;2022-10-16T15:23:45;20.30;47.90
60965;DHT22;46834;51.100;6.886;2022-10-16T15:26:11;20.30;48.00
60965;DHT22;46834;51.100;6.886;2022-10-16T15:28:37;20.20;47.90
60965;DHT22;46834;51.100;6.886;2022-10-16T15:31:04;20.20;48.00
60965;DHT22;46834;51.100;6.886;2022-10-16T15:33:30;20.20;47.90
60965;DHT22;46834;51.100;6.886;2022-10-16T15:35:59;20.20;47.90
60965;DHT22;46834;51.100;6.886;2022-10-16T15:38:26;20.20;47.90
60965;DHT22;46834;51.100;6.886;2022-10-16T15:40:53;20.10;47.90
60965;DHT22;46834;51.100;6.886;2022-10-16T15:43:19;20.10;48.00
60965;DHT22;46834;51.100;6.886;2022-10-16T15:46:02;20.10;48.00
60965;DHT22;46834;51.100;6.886;2022-10-16T15:48:31;20.10;47.80
60965;DHT22;46834;51.100;6.886;2022-10-16T15:50:58;20.00;48.00
60965;DHT22;46834;51.100;6.886;2022-10-16T15:53:25;20.00;48.00
60965;DHT22;46834;51.100;6.886;2022-10-16T15:55:51;20.00;48.00
60965;DHT22;46834;51.100;6.886;2022-10-16T15:58:17;19.90;48.00
60965;DHT22;46834;51.100;6.886;2022-10-16T16:00:42;19.90;48.00
60965;DHT22;46834;51.100;6.886;2022-10-16T16:03:08;19.80;48.00
60965;DHT22;46834;51.100;6.886;2022-10-16T16:05:38;19.80;48.10
60965;DHT22;46834;51.100;6.886;2022-10-16T16:08:05;19.80;48.10
60965;DHT22;46834;51.100;6.886;2022-10-16T16:10:30;19.70;48.20
60965;DHT22;46834;51.100;6.886;2022-10-16T16:12:56;19.70;48.20
60965;DHT22;46834;51.100;6.886;2022-10-16T16:15:22;19.60;48.20
60965;DHT22;46834;51.100;6.886;2022-10-16T16:17:48;19.60;48.30
60965;DHT22;46834;51.100;6.886;2022-10-16T16:20:15;19.60;48.40
60965;DHT22;46834;51.100;6.886;2022-10-16T16:22:40;19.50;48.40
60965;DHT22;46834;51.100;6.886;2022-10-16T16:25:07;19.50;48.50
60965;DHT22;46834;51.100;6.886;2022-10-16T16:27:33;19.40;48.40
60965;DHT22;46834;51.100;6.886;2022-10-16T16:30:00;19.40;48.50
60965;DHT22;46834;51.100;6.886;2022-10-16T16:32:28;19.30;48.50
60965;DHT22;46834;51.100;6.886;2022-10-16T16:34:54;19.30;48.60
60965;DHT22;46834;51.100;6.886;2022-10-16T16:37:20;19.30;48.70
60965;DHT22;46834;51.100;6.886;2022-10-16T16:39:45;19.20;48.70
60965;DHT22;46834;51.100;6.886;2022-10-16T16:42:11;19.20;48.80
60965;DHT22;46834;51.100;6.886;2022-10-16T16:44:37;19.20;48.80
60965;DHT22;46834;51.100;6.886;2022-10-16T16:47:03;19.10;48.90
60965;DHT22;46834;51.100;6.886;2022-10-16T16:49:29;19.10;49.00
60965;DHT22;46834;51.100;6.886;2022-10-16T16:51:55;19.00;49.00
60965;DHT22;46834;51.100;6.886;2022-10-16T16:54:21;19.00;49.10
60965;DHT22;46834;51.100;6.886;2022-10-16T16:56:46;19.00;49.20
60965;DHT22;46834;51.100;6.886;2022-10-16T16:59:14;19.00;49.30
60965;DHT22;46834;51.100;6.886;2022-10-16T17:01:45;18.90;49.40
60965;DHT22;46834;51.100;6.886;2022-10-16T17:04:12;18.90;49.50
60965;DHT22;46834;51.100;6.886;2022-10-16T17:06:40;18.80;49.50
60965;DHT22;46834;51.100;6.886;2022-10-16T17:09:07;18.90;49.70
60965;DHT22;46834;51.100;6.886;2022-10-16T17:11:33;18.80;49.70
60965;DHT22;46834;51.100;6.886;2022-10-16T17:14:00;18.80;49.80
60965;DHT22;46834;51.100;6.886;2022-10-16T17:16:32;18.70;49.80
60965;DHT22;46834;51.100;6.886;2022-10-16T17:19:01;18.70;50.10
60965;DHT22;46834;51.100;6.886;2022-10-16T17:21:28;18.70;50.00
60965;DHT22;46834;51.100;6.886;2022-10-16T17:23:55;18.70;50.00
60965;DHT22;46834;51.100;6.886;2022-10-16T17:26:22;18.70;50.20
60965;DHT22;46834;51.100;6.886;2022-10-16T17:28:51;18.70;50.20
60965;DHT22;46834;51.100;6.886;2022-10-16T17:31:24;18.70;50.40
60965;DHT22;46834;51.100;6.886;2022-10-16T17:33:52;18.70;50.50
60965;DHT22;46834;51.100;6.886;2022-10-16T17:36:19;18.60;50.30
60965;DHT22;46834;51.100;6.886;2022-10-16T17:38:45;18.60;50.40
60965;DHT22;46834;51.100;6.886;2022-10-16T17:41:17;18.60;50.50
60965;DHT22;46834;51.100;6.886;2022-10-16T17:43:46;18.60;50.70
60965;DHT22;46834;51.100;6.886;2022-10-16T17:46:14;18.60;50.60
60965;DHT22;46834;51.100;6.886;2022-10-16T17:48:44;18.60;50.70
60965;DHT22;46834;51.100;6.886;2022-10-16T17:51:13;18.50;50.70
60965;DHT22;46834;51.100;6.886;2022-10-16T17:53:41;18.60;50.90
60965;DHT22;46834;51.100;6.886;2022-10-16T17:56:10;18.50;50.90